sensor_id;sensor_type;location;lat;lon;timestamp;temperature;humidity
3488;DHT22;38546;48.170;11.724;2023-10-19T00:03:08;8.30;99.90
3488;DHT22;38546;48.170;11.724;2023-10-19T00:05:57;8.20;99.90
3488;DHT22;38546;48.170;11.724;2023-10-19T00:08:46;8.20;99.90
3488;DHT22;38546;48.170;11.724;2023-10-19T00:11:36;8.20;99.90
3488;DHT22;38546;48.170;11.724;2023-10-19T00:14:29;8.20;99.90
3488;DHT22;38546;48.170;11.724;2023-10-19T00:17:21;8.20;99.90
3488;DHT22;38546;48.170;11.724;2023-10-19T00:20:10;8.20;99.90
3488;DHT22;38546;48.170;11.724;2023-10-19T00:23:20;8.20;99.90
3488;DHT22;38546;48.170;11.724;2023-10-19T00:26:17;8.10;99.90
3488;DHT22;38546;48.170;11.724;2023-10-19T00:29:09;8.10;99.90
3488;DHT22;38546;48.170;11.724;2023-10-19T00:32:19;8.10;99.90
3488;DHT22;38546;48.170;11.724;2023-10-19T00:35:13;8.10;99.90
3488;DHT22;38546;48.170;11.724;2023-10-19T00:38:25;8.10;99.90
3488;DHT22;38546;48.170;11.724;2023-10-19T00:41:28;8.00;99.90
3488;DHT22;38546;48.170;11.724;2023-10-19T00:44:20;8.00;99.90
3488;DHT22;38546;48.170;11.724;2023-10-19T00:47:21;8.00;99.90
3488;DHT22;38546;48.170;11.724;2023-10-19T00:50:14;8.00;99.90
3488;DHT22;38546;48.170;11.724;2023-10-19T00:53:06;8.00;99.90
3488;DHT22;38546;48.170;11.724;2023-10-19T00:55:58;8.00;99.90
3488;DHT22;38546;48.170;11.724;2023-10-19T00:58:50;8.00;99.90
3488;DHT22;38546;48.170;11.724;2023-10-19T01:01:43;8.00;99.90
3488;DHT22;38546;48.170;11.724;2023-10-19T01:04:33;8.00;99.90
3488;DHT22;38546;48.170;11.724;2023-10-19T01:07:24;8.10;99.90
3488;DHT22;38546;48.170;11.724;2023-10-19T01:10:18;8.10;99.90
3488;DHT22;38546;48.170;11.724;2023-10-19T01:13:10;8.10;99.90
3488;DHT22;38546;48.170;11.724;2023-10-19T01:16:01;8.10;99.90
3488;DHT22;38546;48.170;11.724;2023-10-19T01:18:51;8.10;99.90
3488;DHT22;38546;48.170;11.724;2023-10-19T01:21:44;8.10;99.90
3488;DHT22;38546;48.170;11.724;2023-10-19T01:24:40;8.10;99.90
3488;DHT22;38546;48.170;11.724;2023-10-19T01:27:30;8.10;99.90
3488;DHT22;38546;48.170;11.724;2023-10-19T01:30:20;8.10;99.90
3488;DHT22;38546;48.170;11.724;2023-10-19T01:33:09;8.20;99.90
3488;DHT22;38546;48.170;11.724;2023-10-19T01:36:04;8.20;99.90
3488;DHT22;38546;48.170;11.724;2023-10-19T01:39:00;8.30;99.90
3488;DHT22;38546;48.170;11.724;2023-10-19T01:41:58;8.40;99.90
3488;DHT22;38546;48.170;11.724;2023-10-19T01:44:48;8.50;99.90
3488;DHT22;38546;48.170;11.724;2023-10-19T01:47:37;8.50;99.90
3488;DHT22;38546;48.170;11.724;2023-10-19T01:50:29;8.50;99.90
3488;DHT22;38546;48.170;11.724;2023-10-19T01:53:18;8.50;99.90
3488;DHT22;38546;48.170;11.724;2023-10-19T01:56:15;8.50;99.90
3488;DHT22;38546;48.170;11.724;2023-10-19T01:59:05;8.50;99.90
3488;DHT22;38546;48.170;11.724;2023-10-19T02:01:57;8.50;99.90
3488;DHT22;38546;48.170;11.724;2023-10-19T02:04:46;8.50;99.90
3488;DHT22;38546;48.170;11.724;2023-10-19T02:07:38;8.50;99.90
3488;DHT22;38546;48.170;11.724;2023-10-19T02:10:27;8.50;99.90
3488;DHT22;38546;48.170;11.724;2023-10-19T02:13:21;8.60;99.90
3488;DHT22;38546;48.170;11.724;2023-10-19T02:16:11;8.50;99.90
3488;DHT22;38546;48.170;11.724;2023-10-19T02:19:00;8.50;99.90
3488;DHT22;38546;48.170;11.724;2023-10-19T02:21:52;8.60;99.90
3488;DHT22;38546;48.170;11.724;2023-10-19T02:24:44;8.60;99.90
3488;DHT22;38546;48.170;11.724;2023-10-19T02:27:33;8.60;99.90
3488;DHT22;38546;48.170;11.724;2023-10-19T02:30:23;8.60;99.90
3488;DHT22;38546;48.170;11.724;2023-10-19T02:33:13;8.70;99.90
3488;DHT22;38546;48.170;11.724;2023-10-19T02:36:03;8.80;99.90
3488;DHT22;38546;48.170;11.724;2023-10-19T02:38:53;8.70;99.90
3488;DHT22;38546;48.170;11.724;2023-10-19T02:41:45;8.70;99.90
3488;DHT22;38546;48.170;11.724;2023-10-19T02:44:38;8.70;99.90
3488;DHT22;38546;48.170;11.724;2023-10-19T02:47:28;8.70;99.90
3488;DHT22;38546;48.170;11.724;2023-10-19T02:50:18;8.70;99.90
3488;DHT22;38546;48.170;11.724;2023-10-19T02:53:11;8.70;99.90
3488;DHT22;38546;48.170;11.724;2023-10-19T02:56:10;8.70;99.90
3488;DHT22;38546;48.170;11.724;2023-10-19T02:59:02;8.80;99.90
3488;DHT22;38546;48.170;11.724;2023-10-19T03:01:59;8.80;99.90
3488;DHT22;38546;48.170;11.724;2023-10-19T03:05:01;8.80;99.90
3488;DHT22;38546;48.170;11.724;2023-10-19T03:07:58;8.80;99.90
3488;DHT22;38546;48.170;11.724;2023-10-19T03:10:47;8.80;99.90
3488;DHT22;38546;48.170;11.724;2023-10-19T03:13:52;8.80;99.90
3488;DHT22;38546;48.170;11.724;2023-10-19T03:16:43;8.90;99.90
3488;DHT22;38546;48.170;11.724;2023-10-19T03:19:32;8.80;99.90
3488;DHT22;38546;48.170;11.724;2023-10-19T03:22:23;8.80;99.90
3488;DHT22;38546;48.170;11.724;2023-10-19T03:25:13;8.80;99.90
3488;DHT22;38546;48.170;11.724;2023-10-19T03:28:22;8.80;99.90
3488;DHT22;38546;48.170;11.724;2023-10-19T03:31:15;8.80;99.90
3488;DHT22;38546;48.170;11.724;2023-10-19T03:34:07;8.80;99.90
3488;DHT22;38546;48.170;11.724;2023-10-19T03:36:56;8.80;99.90
3488;DHT22;38546;48.170;11.724;2023-10-19T03:39:46;8.70;99.90
3488;DHT22;38546;48.170;11.724;2023-10-19T03:42:36;8.80;99.90
3488;DHT22;38546;48.170;11.724;2023-10-19T03:45:29;8.80;99.90
3488;DHT22;38546;48.170;11.724;2023-10-19T03:48:22;8.80;99.90
3488;DHT22;38546;48.170;11.724;2023-10-19T03:51:24;8.80;99.90
3488;DHT22;38546;48.170;11.724;2023-10-19T03:54:15;8.80;99.90
3488;DHT22;38546;48.170;11.724;2023-10-19T03:57:13;8.80;99.90
3488;DHT22;38546;48.170;11.724;2023-10-19T04:00:14;8.80;99.90
3488;DHT22;38546;48.170;11.724;2023-10-19T04:03:05;8.90;99.90
3488;DHT22;38546;48.170;11.724;2023-10-19T04:05:54;8.90;99.90
3488;DHT22;38546;48.170;11.724;2023-10-19T04:08:43;8.90;99.90
3488;DHT22;38546;48.170;11.724;2023-10-19T04:11:34;8.90;99.90
3488;DHT22;38546;48.170;11.724;2023-10-19T04:14:37;8.90;99.90
3488;DHT22;38546;48.170;11.724;2023-10-19T04:17:27;8.90;99.90
3488;DHT22;38546;48.170;11.724;2023-10-19T04:20:17;8.90;99.90
3488;DHT22;38546;48.170;11.724;2023-10-19T04:23:07;8.90;99.90
3488;DHT22;38546;48.170;11.724;2023-10-19T04:25:59;8.90;99.90
3488;DHT22;38546;48.170;11.724;2023-10-19T04:28:53;8.90;99.90
3488;DHT22;38546;48.170;11.724;2023-10-19T04:31:44;9.00;99.90
3488;DHT22;38546;48.170;11.724;2023-10-19T04:34:43;9.00;99.90
3488;DHT22;38546;48.170;11.724;2023-10-19T04:37:33;9.00;99.90
3488;DHT22;38546;48.170;11.724;2023-10-19T04:40:23;9.00;99.90
3488;DHT22;38546;48.170;11.724;2023-10-19T04:43:12;9.10;99.90
3488;DHT22;38546;48.170;11.724;2023-10-19T04:46:07;9.10;99.90
3488;DHT22;38546;48.170;11.724;2023-10-19T04:49:02;9.10;99.90
3488;DHT22;38546;48.170;11.724;2023-10-19T04:51:52;9.10;99.90
3488;DHT22;38546;48.170;11.724;2023-10-19T04:54:42;9.10;99.90
3488;DHT22;38546;48.170;11.724;2023-10-19T04:57:31;9.10;99.90
3488;DHT22;38546;48.170;11.724;2023-10-19T05:00:20;9.20;99.90
3488;DHT22;38546;48.170;11.724;2023-10-19T05:03:10;9.20;99.90
3488;DHT22;38546;48.170;11.724;2023-10-19T05:06:04;9.20;99.90
3488;DHT22;38546;48.170;11.724;2023-10-19T05:08:54;9.20;99.90
3488;DHT22;38546;48.170;11.724;2023-10-19T05:11:44;9.30;99.90
3488;DHT22;38546;48.170;11.724;2023-10-19T05:14:39;9.30;99.90
3488;DHT22;38546;48.170;11.724;2023-10-19T05:17:28;9.30;99.90
3488;DHT22;38546;48.170;11.724;2023-10-19T05:20:17;9.30;99.90
3488;DHT22;38546;48.170;11.724;2023-10-19T05:23:07;9.30;99.90
3488;DHT22;38546;48.170;11.724;2023-10-19T05:26:02;9.30;99.90
3488;DHT22;38546;48.170;11.724;2023-10-19T05:28:53;9.30;99.90
3488;DHT22;38546;48.170;11.724;2023-10-19T05:31:43;9.40;99.90
3488;DHT22;38546;48.170;11.724;2023-10-19T05:34:32;9.40;99.90
3488;DHT22;38546;48.170;11.724;2023-10-19T05:37:23;9.40;99.90
3488;DHT22;38546;48.170;11.724;2023-10-19T05:40:14;9.40;99.90
3488;DHT22;38546;48.170;11.724;2023-10-19T05:43:03;9.40;99.90
3488;DHT22;38546;48.170;11.724;2023-10-19T05:45:53;9.40;99.90
3488;DHT22;38546;48.170;11.724;2023-10-19T05:48:42;9.40;99.90
3488;DHT22;38546;48.170;11.724;2023-10-19T05:51:32;9.40;99.90
3488;DHT22;38546;48.170;11.724;2023-10-19T05:54:22;9.40;99.90
3488;DHT22;38546;48.170;11.724;2023-10-19T05:57:12;9.40;99.90
3488;DHT22;38546;48.170;11.724;2023-10-19T06:00:01;9.40;99.90
3488;DHT22;38546;48.170;11.724;2023-10-19T06:02:54;9.40;99.90
3488;DHT22;38546;48.170;11.724;2023-10-19T06:05:43;9.40;99.90
3488;DHT22;38546;48.170;11.724;2023-10-19T06:08:32;9.40;99.90
3488;DHT22;38546;48.170;11.724;2023-10-19T06:11:21;9.40;99.90
3488;DHT22;38546;48.170;11.724;2023-10-19T06:14:11;9.40;99.90
3488;DHT22;38546;48.170;11.724;2023-10-19T06:17:00;9.40;99.90
3488;DHT22;38546;48.170;11.724;2023-10-19T06:19:50;9.40;99.90
3488;DHT22;38546;48.170;11.724;2023-10-19T06:22:39;9.40;99.90
3488;DHT22;38546;48.170;11.724;2023-10-19T06:25:28;9.40;99.90
3488;DHT22;38546;48.170;11.724;2023-10-19T06:28:17;9.50;99.90
3488;DHT22;38546;48.170;11.724;2023-10-19T06:31:06;9.50;99.90
3488;DHT22;38546;48.170;11.724;2023-10-19T06:33:56;9.50;99.90
3488;DHT22;38546;48.170;11.724;2023-10-19T06:36:49;9.60;99.90
3488;DHT22;38546;48.170;11.724;2023-10-19T06:39:39;9.60;99.90
3488;DHT22;38546;48.170;11.724;2023-10-19T06:42:32;9.60;99.90
3488;DHT22;38546;48.170;11.724;2023-10-19T06:45:21;9.60;99.90
3488;DHT22;38546;48.170;11.724;2023-10-19T06:48:10;9.70;99.90
3488;DHT22;38546;48.170;11.724;2023-10-19T06:51:00;9.70;99.90
3488;DHT22;38546;48.170;11.724;2023-10-19T06:53:49;9.80;99.90
3488;DHT22;38546;48.170;11.724;2023-10-19T06:56:39;9.80;99.90
3488;DHT22;38546;48.170;11.724;2023-10-19T06:59:29;9.90;99.90
3488;DHT22;38546;48.170;11.724;2023-10-19T07:02:18;10.00;99.90
3488;DHT22;38546;48.170;11.724;2023-10-19T07:05:15;10.00;99.90
3488;DHT22;38546;48.170;11.724;2023-10-19T07:08:10;10.10;99.90
3488;DHT22;38546;48.170;11.724;2023-10-19T07:10:59;10.20;99.90
3488;DHT22;38546;48.170;11.724;2023-10-19T07:13:49;10.20;99.90
3488;DHT22;38546;48.170;11.724;2023-10-19T07:16:41;10.40;99.90
3488;DHT22;38546;48.170;11.724;2023-10-19T07:19:30;10.50;99.90
3488;DHT22;38546;48.170;11.724;2023-10-19T07:22:20;10.60;99.90
3488;DHT22;38546;48.170;11.724;2023-10-19T07:25:12;10.70;99.90
3488;DHT22;38546;48.170;11.724;2023-10-19T07:28:02;10.80;99.90
3488;DHT22;38546;48.170;11.724;2023-10-19T07:30:54;11.00;99.90
3488;DHT22;38546;48.170;11.724;2023-10-19T07:33:45;11.10;99.90
3488;DHT22;38546;48.170;11.724;2023-10-19T07:36:34;11.20;99.90
3488;DHT22;38546;48.170;11.724;2023-10-19T07:39:26;11.30;99.90
3488;DHT22;38546;48.170;11.724;2023-10-19T07:42:18;11.40;99.90
3488;DHT22;38546;48.170;11.724;2023-10-19T07:45:07;11.50;99.90
3488;DHT22;38546;48.170;11.724;2023-10-19T07:48:00;11.70;99.90
3488;DHT22;38546;48.170;11.724;2023-10-19T07:50:55;11.90;99.90
3488;DHT22;38546;48.170;11.724;2023-10-19T07:53:45;12.00;99.90
3488;DHT22;38546;48.170;11.724;2023-10-19T07:56:34;12.20;99.90
3488;DHT22;38546;48.170;11.724;2023-10-19T07:59:23;12.30;99.90
3488;DHT22;38546;48.170;11.724;2023-10-19T08:02:12;12.40;99.90
3488;DHT22;38546;48.170;11.724;2023-10-19T08:05:02;12.50;99.90
3488;DHT22;38546;48.170;11.724;2023-10-19T08:07:52;12.60;99.90
3488;DHT22;38546;48.170;11.724;2023-10-19T08:10:41;12.60;99.90
3488;DHT22;38546;48.170;11.724;2023-10-19T08:13:30;12.70;99.90
3488;DHT22;38546;48.170;11.724;2023-10-19T08:16:21;12.80;99.90
3488;DHT22;38546;48.170;11.724;2023-10-19T08:19:11;12.90;99.90
3488;DHT22;38546;48.170;11.724;2023-10-19T08:22:01;12.90;99.90
3488;DHT22;38546;48.170;11.724;2023-10-19T08:24:51;13.00;99.90
3488;DHT22;38546;48.170;11.724;2023-10-19T08:27:41;13.10;99.90
3488;DHT22;38546;48.170;11.724;2023-10-19T08:30:33;13.20;99.90
3488;DHT22;38546;48.170;11.724;2023-10-19T08:33:24;13.40;99.90
3488;DHT22;38546;48.170;11.724;2023-10-19T08:36:18;13.50;99.90
3488;DHT22;38546;48.170;11.724;2023-10-19T08:39:11;13.70;99.90
3488;DHT22;38546;48.170;11.724;2023-10-19T08:42:03;13.80;99.90
3488;DHT22;38546;48.170;11.724;2023-10-19T08:44:53;14.00;99.90
3488;DHT22;38546;48.170;11.724;2023-10-19T08:47:59;14.10;99.90
3488;DHT22;38546;48.170;11.724;2023-10-19T08:50:50;14.30;99.90
3488;DHT22;38546;48.170;11.724;2023-10-19T08:53:40;14.50;99.90
3488;DHT22;38546;48.170;11.724;2023-10-19T08:56:30;14.60;99.90
3488;DHT22;38546;48.170;11.724;2023-10-19T08:59:22;14.70;99.90
3488;DHT22;38546;48.170;11.724;2023-10-19T09:02:12;14.90;99.90
3488;DHT22;38546;48.170;11.724;2023-10-19T09:05:08;14.90;99.90
3488;DHT22;38546;48.170;11.724;2023-10-19T09:07:57;15.10;99.90
3488;DHT22;38546;48.170;11.724;2023-10-19T09:10:49;15.10;99.90
3488;DHT22;38546;48.170;11.724;2023-10-19T09:13:49;15.20;99.90
3488;DHT22;38546;48.170;11.724;2023-10-19T09:16:54;15.40;99.90
3488;DHT22;38546;48.170;11.724;2023-10-19T09:19:46;15.50;99.90
3488;DHT22;38546;48.170;11.724;2023-10-19T09:22:38;15.40;99.90
3488;DHT22;38546;48.170;11.724;2023-10-19T09:25:33;15.30;99.90
3488;DHT22;38546;48.170;11.724;2023-10-19T09:28:24;15.30;99.90
3488;DHT22;38546;48.170;11.724;2023-10-19T09:31:14;15.30;99.90
3488;DHT22;38546;48.170;11.724;2023-10-19T09:34:06;15.40;99.90
3488;DHT22;38546;48.170;11.724;2023-10-19T09:37:00;15.40;99.90
3488;DHT22;38546;48.170;11.724;2023-10-19T09:39:49;15.40;99.90
3488;DHT22;38546;48.170;11.724;2023-10-19T09:42:43;15.40;99.90
3488;DHT22;38546;48.170;11.724;2023-10-19T09:45:41;15.40;99.90
3488;DHT22;38546;48.170;11.724;2023-10-19T09:48:32;15.40;99.90
3488;DHT22;38546;48.170;11.724;2023-10-19T09:51:25;15.40;99.90
3488;DHT22;38546;48.170;11.724;2023-10-19T09:54:20;15.40;99.90
3488;DHT22;38546;48.170;11.724;2023-10-19T09:57:21;15.40;99.90
3488;DHT22;38546;48.170;11.724;2023-10-19T10:00:14;15.40;99.90
3488;DHT22;38546;48.170;11.724;2023-10-19T10:03:06;15.40;99.90
3488;DHT22;38546;48.170;11.724;2023-10-19T10:05:55;15.40;99.90
3488;DHT22;38546;48.170;11.724;2023-10-19T10:08:45;15.60;99.90
3488;DHT22;38546;48.170;11.724;2023-10-19T10:11:35;15.70;99.90
3488;DHT22;38546;48.170;11.724;2023-10-19T10:14:25;15.90;99.90
3488;DHT22;38546;48.170;11.724;2023-10-19T10:17:18;16.10;99.90
3488;DHT22;38546;48.170;11.724;2023-10-19T10:20:41;16.20;99.90
3488;DHT22;38546;48.170;11.724;2023-10-19T10:23:31;16.20;99.90
3488;DHT22;38546;48.170;11.724;2023-10-19T10:26:57;16.30;99.90
3488;DHT22;38546;48.170;11.724;2023-10-19T10:30:00;16.30;99.90
3488;DHT22;38546;48.170;11.724;2023-10-19T10:32:55;16.30;99.90
3488;DHT22;38546;48.170;11.724;2023-10-19T10:35:54;16.20;99.90
3488;DHT22;38546;48.170;11.724;2023-10-19T10:38:48;16.20;99.90
3488;DHT22;38546;48.170;11.724;2023-10-19T10:41:39;16.30;99.90
3488;DHT22;38546;48.170;11.724;2023-10-19T10:44:45;16.30;99.90
3488;DHT22;38546;48.170;11.724;2023-10-19T10:47:36;16.40;99.90
3488;DHT22;38546;48.170;11.724;2023-10-19T10:50:27;16.50;99.90
3488;DHT22;38546;48.170;11.724;2023-10-19T10:53:19;16.70;99.90
3488;DHT22;38546;48.170;11.724;2023-10-19T10:56:14;16.80;99.90
3488;DHT22;38546;48.170;11.724;2023-10-19T10:59:12;16.90;99.90
3488;DHT22;38546;48.170;11.724;2023-10-19T11:02:08;17.00;99.90
3488;DHT22;38546;48.170;11.724;2023-10-19T11:05:07;17.10;99.90
3488;DHT22;38546;48.170;11.724;2023-10-19T11:08:34;17.10;99.90
3488;DHT22;38546;48.170;11.724;2023-10-19T11:11:25;17.00;99.90
3488;DHT22;38546;48.170;11.724;2023-10-19T11:14:15;17.00;99.90
3488;DHT22;38546;48.170;11.724;2023-10-19T11:17:14;17.10;99.90
3488;DHT22;38546;48.170;11.724;2023-10-19T11:20:05;17.10;99.90
3488;DHT22;38546;48.170;11.724;2023-10-19T11:22:56;17.20;99.90
3488;DHT22;38546;48.170;11.724;2023-10-19T11:25:46;17.40;99.90
3488;DHT22;38546;48.170;11.724;2023-10-19T11:28:36;17.40;99.90
3488;DHT22;38546;48.170;11.724;2023-10-19T11:31:31;17.60;99.90
3488;DHT22;38546;48.170;11.724;2023-10-19T11:34:27;17.80;99.90
3488;DHT22;38546;48.170;11.724;2023-10-19T11:37:18;18.00;99.90
3488;DHT22;38546;48.170;11.724;2023-10-19T11:40:08;18.00;99.90
3488;DHT22;38546;48.170;11.724;2023-10-19T11:42:58;18.00;99.90
3488;DHT22;38546;48.170;11.724;2023-10-19T11:45:50;18.10;99.90
3488;DHT22;38546;48.170;11.724;2023-10-19T11:48:40;18.10;99.90
3488;DHT22;38546;48.170;11.724;2023-10-19T11:51:31;18.10;99.90
3488;DHT22;38546;48.170;11.724;2023-10-19T11:54:21;18.10;99.90
3488;DHT22;38546;48.170;11.724;2023-10-19T11:57:10;18.10;99.90
3488;DHT22;38546;48.170;11.724;2023-10-19T12:00:04;18.00;99.90
3488;DHT22;38546;48.170;11.724;2023-10-19T12:02:58;18.00;99.90
3488;DHT22;38546;48.170;11.724;2023-10-19T12:05:47;17.90;99.90
3488;DHT22;38546;48.170;11.724;2023-10-19T12:08:38;17.80;99.90
3488;DHT22;38546;48.170;11.724;2023-10-19T12:11:28;17.70;99.90
3488;DHT22;38546;48.170;11.724;2023-10-19T12:14:19;17.70;99.90
3488;DHT22;38546;48.170;11.724;2023-10-19T12:17:10;17.60;99.90
3488;DHT22;38546;48.170;11.724;2023-10-19T12:20:00;17.50;99.90
3488;DHT22;38546;48.170;11.724;2023-10-19T12:22:50;17.40;99.90
3488;DHT22;38546;48.170;11.724;2023-10-19T12:25:43;17.40;99.90
3488;DHT22;38546;48.170;11.724;2023-10-19T12:28:32;17.30;99.90
3488;DHT22;38546;48.170;11.724;2023-10-19T12:31:21;17.40;99.90
3488;DHT22;38546;48.170;11.724;2023-10-19T12:34:12;17.50;99.90
3488;DHT22;38546;48.170;11.724;2023-10-19T12:37:02;17.60;99.90
3488;DHT22;38546;48.170;11.724;2023-10-19T12:39:52;17.60;99.90
3488;DHT22;38546;48.170;11.724;2023-10-19T12:42:44;17.50;99.90
3488;DHT22;38546;48.170;11.724;2023-10-19T12:45:33;17.40;99.90
3488;DHT22;38546;48.170;11.724;2023-10-19T12:48:26;17.40;99.90
3488;DHT22;38546;48.170;11.724;2023-10-19T12:51:22;17.90;99.90
3488;DHT22;38546;48.170;11.724;2023-10-19T12:54:14;17.90;99.90
3488;DHT22;38546;48.170;11.724;2023-10-19T12:57:05;18.00;99.90
3488;DHT22;38546;48.170;11.724;2023-10-19T12:59:56;18.10;99.90
3488;DHT22;38546;48.170;11.724;2023-10-19T13:02:45;18.10;99.90
3488;DHT22;38546;48.170;11.724;2023-10-19T13:05:35;18.20;99.90
3488;DHT22;38546;48.170;11.724;2023-10-19T13:08:26;18.20;99.90
3488;DHT22;38546;48.170;11.724;2023-10-19T13:11:18;18.20;99.90
3488;DHT22;38546;48.170;11.724;2023-10-19T13:14:07;18.20;99.90
3488;DHT22;38546;48.170;11.724;2023-10-19T13:16:57;18.10;99.90
3488;DHT22;38546;48.170;11.724;2023-10-19T13:19:47;18.10;99.90
3488;DHT22;38546;48.170;11.724;2023-10-19T13:22:40;18.20;99.90
3488;DHT22;38546;48.170;11.724;2023-10-19T13:25:31;18.40;99.90
3488;DHT22;38546;48.170;11.724;2023-10-19T13:28:36;18.50;99.90
3488;DHT22;38546;48.170;11.724;2023-10-19T13:31:28;18.40;99.90
3488;DHT22;38546;48.170;11.724;2023-10-19T13:34:17;18.60;99.90
3488;DHT22;38546;48.170;11.724;2023-10-19T13:37:06;18.60;99.90
3488;DHT22;38546;48.170;11.724;2023-10-19T13:39:57;18.50;99.90
3488;DHT22;38546;48.170;11.724;2023-10-19T13:42:47;18.60;99.90
3488;DHT22;38546;48.170;11.724;2023-10-19T13:45:38;18.60;99.90
3488;DHT22;38546;48.170;11.724;2023-10-19T13:48:27;18.50;99.90
3488;DHT22;38546;48.170;11.724;2023-10-19T13:51:17;18.40;99.90
3488;DHT22;38546;48.170;11.724;2023-10-19T13:54:08;18.40;99.90
3488;DHT22;38546;48.170;11.724;2023-10-19T13:56:58;18.40;99.90
3488;DHT22;38546;48.170;11.724;2023-10-19T13:59:47;18.40;99.90
3488;DHT22;38546;48.170;11.724;2023-10-19T14:02:38;18.20;99.90
3488;DHT22;38546;48.170;11.724;2023-10-19T14:05:29;18.20;99.90
3488;DHT22;38546;48.170;11.724;2023-10-19T14:08:19;18.10;99.90
3488;DHT22;38546;48.170;11.724;2023-10-19T14:11:09;18.10;99.90
3488;DHT22;38546;48.170;11.724;2023-10-19T14:13:59;18.10;99.90
3488;DHT22;38546;48.170;11.724;2023-10-19T14:16:49;17.90;99.90
3488;DHT22;38546;48.170;11.724;2023-10-19T14:19:39;17.80;99.90
3488;DHT22;38546;48.170;11.724;2023-10-19T14:22:33;17.70;99.90
3488;DHT22;38546;48.170;11.724;2023-10-19T14:25:25;17.60;99.90
3488;DHT22;38546;48.170;11.724;2023-10-19T14:28:15;17.50;99.90
3488;DHT22;38546;48.170;11.724;2023-10-19T14:31:05;17.50;99.90
3488;DHT22;38546;48.170;11.724;2023-10-19T14:33:56;17.30;99.90
3488;DHT22;38546;48.170;11.724;2023-10-19T14:36:47;17.00;99.90
3488;DHT22;38546;48.170;11.724;2023-10-19T14:39:37;16.80;99.90
3488;DHT22;38546;48.170;11.724;2023-10-19T14:42:27;16.60;99.90
3488;DHT22;38546;48.170;11.724;2023-10-19T14:45:21;16.40;99.90
3488;DHT22;38546;48.170;11.724;2023-10-19T14:48:14;16.30;99.90
3488;DHT22;38546;48.170;11.724;2023-10-19T14:51:04;16.20;99.90
3488;DHT22;38546;48.170;11.724;2023-10-19T14:53:54;16.10;99.90
3488;DHT22;38546;48.170;11.724;2023-10-19T14:56:43;16.10;99.90
3488;DHT22;38546;48.170;11.724;2023-10-19T14:59:33;16.10;99.90
3488;DHT22;38546;48.170;11.724;2023-10-19T15:02:25;16.20;99.90
3488;DHT22;38546;48.170;11.724;2023-10-19T15:05:16;16.10;99.90
3488;DHT22;38546;48.170;11.724;2023-10-19T15:08:07;16.10;99.90
3488;DHT22;38546;48.170;11.724;2023-10-19T15:10:56;16.00;99.90
3488;DHT22;38546;48.170;11.724;2023-10-19T15:13:46;15.90;99.90
3488;DHT22;38546;48.170;11.724;2023-10-19T15:16:35;15.80;99.90
3488;DHT22;38546;48.170;11.724;2023-10-19T15:19:24;15.80;99.90
3488;DHT22;38546;48.170;11.724;2023-10-19T15:22:14;15.70;99.90
3488;DHT22;38546;48.170;11.724;2023-10-19T15:25:05;15.60;99.90
3488;DHT22;38546;48.170;11.724;2023-10-19T15:27:58;15.60;99.90
3488;DHT22;38546;48.170;11.724;2023-10-19T15:30:47;15.60;99.90
3488;DHT22;38546;48.170;11.724;2023-10-19T15:33:37;15.60;99.90
3488;DHT22;38546;48.170;11.724;2023-10-19T15:36:26;15.50;99.90
3488;DHT22;38546;48.170;11.724;2023-10-19T15:39:16;15.50;99.90
3488;DHT22;38546;48.170;11.724;2023-10-19T15:42:07;15.50;99.90
3488;DHT22;38546;48.170;11.724;2023-10-19T15:44:57;15.40;99.90
3488;DHT22;38546;48.170;11.724;2023-10-19T15:47:47;15.50;99.90
3488;DHT22;38546;48.170;11.724;2023-10-19T15:50:38;15.40;99.90
3488;DHT22;38546;48.170;11.724;2023-10-19T15:53:32;15.40;99.90
3488;DHT22;38546;48.170;11.724;2023-10-19T15:56:23;15.40;99.90
3488;DHT22;38546;48.170;11.724;2023-10-19T15:59:15;15.40;99.90
3488;DHT22;38546;48.170;11.724;2023-10-19T16:02:04;15.30;99.90
3488;DHT22;38546;48.170;11.724;2023-10-19T16:04:53;15.30;99.90
3488;DHT22;38546;48.170;11.724;2023-10-19T16:07:43;15.20;99.90
3488;DHT22;38546;48.170;11.724;2023-10-19T16:10:33;15.10;99.90
3488;DHT22;38546;48.170;11.724;2023-10-19T16:13:22;15.00;99.90
3488;DHT22;38546;48.170;11.724;2023-10-19T16:16:10;15.00;99.90
3488;DHT22;38546;48.170;11.724;2023-10-19T16:19:01;14.90;99.90
3488;DHT22;38546;48.170;11.724;2023-10-19T16:21:51;14.80;99.90
3488;DHT22;38546;48.170;11.724;2023-10-19T16:24:40;14.80;99.90
3488;DHT22;38546;48.170;11.724;2023-10-19T16:27:29;14.80;99.90
3488;DHT22;38546;48.170;11.724;2023-10-19T16:30:19;14.80;99.90
3488;DHT22;38546;48.170;11.724;2023-10-19T16:33:08;14.80;99.90
3488;DHT22;38546;48.170;11.724;2023-10-19T16:35:57;14.70;99.90
3488;DHT22;38546;48.170;11.724;2023-10-19T16:38:46;14.60;99.90
3488;DHT22;38546;48.170;11.724;2023-10-19T16:41:36;14.60;99.90
3488;DHT22;38546;48.170;11.724;2023-10-19T16:44:26;14.60;99.90
3488;DHT22;38546;48.170;11.724;2023-10-19T16:47:15;14.60;99.90
3488;DHT22;38546;48.170;11.724;2023-10-19T16:50:05;14.50;99.90
3488;DHT22;38546;48.170;11.724;2023-10-19T16:53:00;14.50;99.90
3488;DHT22;38546;48.170;11.724;2023-10-19T16:55:49;14.50;99.90
3488;DHT22;38546;48.170;11.724;2023-10-19T16:58:39;14.50;99.90
3488;DHT22;38546;48.170;11.724;2023-10-19T17:01:27;14.50;99.90
3488;DHT22;38546;48.170;11.724;2023-10-19T17:04:17;14.50;99.90
3488;DHT22;38546;48.170;11.724;2023-10-19T17:07:06;14.50;99.90
3488;DHT22;38546;48.170;11.724;2023-10-19T17:09:56;14.50;99.90
3488;DHT22;38546;48.170;11.724;2023-10-19T17:12:45;14.60;99.90
3488;DHT22;38546;48.170;11.724;2023-10-19T17:15:35;14.50;99.90
3488;DHT22;38546;48.170;11.724;2023-10-19T17:18:26;14.40;99.90
3488;DHT22;38546;48.170;11.724;2023-10-19T17:21:16;14.30;99.90
3488;DHT22;38546;48.170;11.724;2023-10-19T17:24:05;14.20;99.90
3488;DHT22;38546;48.170;11.724;2023-10-19T17:26:57;14.10;99.90
3488;DHT22;38546;48.170;11.724;2023-10-19T17:29:46;14.00;99.90
3488;DHT22;38546;48.170;11.724;2023-10-19T17:32:36;14.00;99.90
3488;DHT22;38546;48.170;11.724;2023-10-19T17:35:25;13.90;99.90
3488;DHT22;38546;48.170;11.724;2023-10-19T17:38:14;13.80;99.90
3488;DHT22;38546;48.170;11.724;2023-10-19T17:41:03;13.80;99.90
3488;DHT22;38546;48.170;11.724;2023-10-19T17:43:53;13.70;99.90
3488;DHT22;38546;48.170;11.724;2023-10-19T17:46:43;13.80;99.90
3488;DHT22;38546;48.170;11.724;2023-10-19T17:49:33;13.80;99.90
3488;DHT22;38546;48.170;11.724;2023-10-19T17:52:23;13.70;99.90
3488;DHT22;38546;48.170;11.724;2023-10-19T17:55:12;13.60;99.90
3488;DHT22;38546;48.170;11.724;2023-10-19T17:58:01;13.50;99.90
3488;DHT22;38546;48.170;11.724;2023-10-19T18:00:51;13.40;99.90
3488;DHT22;38546;48.170;11.724;2023-10-19T18:03:39;13.20;99.90
3488;DHT22;38546;48.170;11.724;2023-10-19T18:06:29;13.20;99.90
3488;DHT22;38546;48.170;11.724;2023-10-19T18:09:19;13.10;99.90
3488;DHT22;38546;48.170;11.724;2023-10-19T18:12:08;13.00;99.90
3488;DHT22;38546;48.170;11.724;2023-10-19T18:14:59;13.00;99.90